TAP3686 LPPT-LKPR
Flight info
| Callsign | TAP3686 |
|---|---|
| Flight time | N/A |
| Altitude | 40000 |
| Route | IXIDA DCT TOSDI DCT ZMR DCT NUBLO DCT RONSI DCT DELOG DCT DIDIG DCT ARDOD UN873 OBATO UM163 TSU UN858 OQQAL DCT RANUX DCT VALEK DCT LIPNI DCT LIMGO DCT BOMBI L984 LOHRE DCT BOREP DCT TONSU Z35 ODOMO DCT LOMKI |
| Aircraft | A339/H-SADE1E2E3GHIJ3J5M1P2RWXY/LB2D1 |
Departure
| Time | 2026-04-28 14:55 |
|---|---|
| Airport | Lisbon Humberto Delgado Airport (LPPT) |
Arrival
| Time | N/A |
|---|---|
| Airport | Václav Havel Airport Prague (LKPR) |
| Time | Latitude | Longitude | Altitude | Speed | Heading |
|---|---|---|---|---|---|
| 2026-04-28 14:12 | 38.77011 | -9.13626 | 359 ft | 0 kts | 258° |
| 2026-04-28 14:39 | 38.77014 | -9.13611 | 448 ft | 3 kts | 258° |
| 2026-04-28 14:39 | 38.77018 | -9.13586 | 473 ft | 3 kts | 258° |
| 2026-04-28 14:39 | 38.77022 | -9.13566 | 332 ft | 3 kts | 267° |
| 2026-04-28 14:40 | 38.77024 | -9.13545 | 359 ft | 3 kts | 297° |
| 2026-04-28 14:40 | 38.77021 | -9.13533 | 355 ft | 3 kts | 322° |
| 2026-04-28 14:40 | 38.77001 | -9.13518 | 359 ft | 3 kts | 348° |
| 2026-04-28 14:40 | 38.76987 | -9.13515 | 361 ft | 1 kts | 348° |
| 2026-04-28 14:41 | 38.76986 | -9.13515 | 361 ft | 0 kts | 348° |
| 2026-04-28 14:43 | 38.76987 | -9.13515 | 361 ft | 0 kts | 348° |
| 2026-04-28 14:44 | 38.77011 | -9.13521 | 362 ft | 7 kts | 348° |
| 2026-04-28 14:44 | 38.77017 | -9.13523 | 362 ft | 0 kts | 348° |
| 2026-04-28 14:48 | 38.77047 | -9.13530 | 376 ft | 8 kts | 353° |
| 2026-04-28 14:48 | 38.77117 | -9.13497 | 360 ft | 14 kts | 39° |
| 2026-04-28 14:48 | 38.77138 | -9.13475 | 359 ft | 6 kts | 38° |
| 2026-04-28 14:49 | 38.77167 | -9.13453 | 359 ft | 4 kts | 25° |
| 2026-04-28 14:49 | 38.77217 | -9.13456 | 357 ft | 9 kts | 342° |
| 2026-04-28 14:49 | 38.77299 | -9.13503 | 357 ft | 16 kts | 340° |
| 2026-04-28 14:49 | 38.77427 | -9.13539 | 359 ft | 22 kts | 349° |
| 2026-04-28 14:50 | 38.77586 | -9.13588 | 365 ft | 25 kts | 347° |
| 2026-04-28 14:50 | 38.77749 | -9.13570 | 367 ft | 24 kts | 17° |
| 2026-04-28 14:50 | 38.77903 | -9.13489 | 366 ft | 24 kts | 28° |
| 2026-04-28 14:50 | 38.78055 | -9.13401 | 368 ft | 24 kts | 21° |
| 2026-04-28 14:51 | 38.78212 | -9.13325 | 365 ft | 24 kts | 21° |
| 2026-04-28 14:51 | 38.78368 | -9.13242 | 367 ft | 24 kts | 20° |
| 2026-04-28 14:51 | 38.78522 | -9.13268 | 369 ft | 23 kts | 321° |
| 2026-04-28 14:51 | 38.78631 | -9.13405 | 372 ft | 22 kts | 335° |
| 2026-04-28 14:52 | 38.78784 | -9.13428 | 371 ft | 23 kts | 355° |
| 2026-04-28 14:52 | 38.78948 | -9.13401 | 364 ft | 26 kts | 23° |
| 2026-04-28 14:52 | 38.79124 | -9.13308 | 357 ft | 28 kts | 22° |
| 2026-04-28 14:52 | 38.79303 | -9.13218 | 362 ft | 27 kts | 22° |
| 2026-04-28 14:53 | 38.79473 | -9.13133 | 366 ft | 24 kts | 20° |
| 2026-04-28 14:53 | 38.79620 | -9.13054 | 369 ft | 22 kts | 29° |
| 2026-04-28 14:53 | 38.79762 | -9.12966 | 366 ft | 21 kts | 32° |
| 2026-04-28 14:53 | 38.79773 | -9.12895 | 362 ft | 11 kts | 103° |
| 2026-04-28 14:54 | 38.79735 | -9.12785 | 360 ft | 15 kts | 118° |
| 2026-04-28 14:54 | 38.79664 | -9.12774 | 360 ft | 9 kts | 212° |
| 2026-04-28 14:54 | 38.79602 | -9.12809 | 365 ft | 12 kts | 202° |
| 2026-04-28 14:54 | 38.79331 | -9.12952 | 363 ft | 85 kts | 202° |
| 2026-04-28 14:55 | 38.78543 | -9.13372 | 372 ft | 157 kts | 202° |
| 2026-04-28 14:55 | 38.77444 | -9.13950 | 928 ft | 171 kts | 202° |
| 2026-04-28 14:55 | 38.76328 | -9.14514 | 1869 ft | 172 kts | 202° |
| 2026-04-28 14:55 | 38.75210 | -9.15048 | 2849 ft | 176 kts | 200° |
| 2026-04-28 14:56 | 38.74034 | -9.15656 | 3490 ft | 188 kts | 202° |
| 2026-04-28 14:56 | 38.72796 | -9.16322 | 4133 ft | 200 kts | 203° |
| 2026-04-28 14:56 | 38.71446 | -9.17043 | 4649 ft | 223 kts | 204° |
| 2026-04-28 14:56 | 38.69951 | -9.17916 | 5169 ft | 247 kts | 206° |
| 2026-04-28 14:57 | 38.68364 | -9.18908 | 5575 ft | 268 kts | 206° |
| 2026-04-28 14:57 | 38.67214 | -9.19651 | 5797 ft | 282 kts | 208° |
| 2026-04-28 14:57 | 38.65411 | -9.21940 | 6997 ft | 274 kts | 243° |
| 2026-04-28 14:57 | 38.64967 | -9.24251 | 8007 ft | 268 kts | 268° |
| 2026-04-28 14:58 | 38.65316 | -9.26710 | 8549 ft | 284 kts | 290° |
| 2026-04-28 14:58 | 38.66301 | -9.28922 | 9228 ft | 291 kts | 310° |
| 2026-04-28 14:58 | 38.67924 | -9.30490 | 9958 ft | 297 kts | 334° |
| 2026-04-28 14:58 | 38.69967 | -9.31186 | 10359 ft | 316 kts | 356° |
| 2026-04-28 14:59 | 38.72212 | -9.30841 | 10568 ft | 338 kts | 18° |
| 2026-04-28 14:59 | 38.74344 | -9.29442 | 10974 ft | 350 kts | 34° |
| 2026-04-28 14:59 | 38.76313 | -9.27575 | 11603 ft | 354 kts | 38° |
| 2026-04-28 14:59 | 38.78272 | -9.25637 | 12297 ft | 359 kts | 38° |
| 2026-04-28 15:00 | 38.80263 | -9.23757 | 12993 ft | 362 kts | 36° |
| 2026-04-28 15:00 | 38.82340 | -9.21896 | 13634 ft | 366 kts | 35° |
| 2026-04-28 15:00 | 38.84448 | -9.19977 | 14217 ft | 370 kts | 39° |
| 2026-04-28 15:00 | 38.86347 | -9.17722 | 14834 ft | 372 kts | 48° |
| 2026-04-28 15:01 | 38.88076 | -9.15200 | 15415 ft | 376 kts | 50° |
| 2026-04-28 15:01 | 38.89871 | -9.12598 | 16037 ft | 379 kts | 49° |
| 2026-04-28 15:01 | 38.91610 | -9.10102 | 16651 ft | 382 kts | 49° |
| 2026-04-28 15:01 | 38.93392 | -9.07541 | 17243 ft | 386 kts | 49° |
| 2026-04-28 15:02 | 38.95191 | -9.04955 | 17827 ft | 390 kts | 49° |
| 2026-04-28 15:02 | 38.97000 | -9.02348 | 18374 ft | 393 kts | 49° |
| 2026-04-28 15:02 | 38.98828 | -8.99711 | 18890 ft | 397 kts | 49° |
| 2026-04-28 15:02 | 39.00672 | -8.97050 | 19415 ft | 400 kts | 50° |
| 2026-04-28 15:03 | 39.02529 | -8.94370 | 19924 ft | 403 kts | 50° |
| 2026-04-28 15:03 | 39.04402 | -8.91660 | 20453 ft | 407 kts | 50° |
| 2026-04-28 15:03 | 39.06291 | -8.88925 | 20977 ft | 410 kts | 50° |
| 2026-04-28 15:03 | 39.08161 | -8.86210 | 21480 ft | 414 kts | 50° |
| 2026-04-28 15:04 | 39.10083 | -8.83421 | 21995 ft | 417 kts | 50° |
| 2026-04-28 15:04 | 39.12010 | -8.80624 | 22524 ft | 421 kts | 50° |
| 2026-04-28 15:04 | 39.13993 | -8.77739 | 23056 ft | 425 kts | 51° |
| 2026-04-28 15:04 | 39.15954 | -8.74886 | 23560 ft | 429 kts | 51° |
| 2026-04-28 15:05 | 39.17936 | -8.72000 | 24019 ft | 432 kts | 51° |
| 2026-04-28 15:05 | 39.19932 | -8.69081 | 24476 ft | 435 kts | 51° |
| 2026-04-28 15:05 | 39.21941 | -8.66140 | 24912 ft | 438 kts | 50° |
| 2026-04-28 15:05 | 39.23960 | -8.63180 | 25350 ft | 441 kts | 50° |
| 2026-04-28 15:06 | 39.25996 | -8.60194 | 25791 ft | 444 kts | 50° |
| 2026-04-28 15:06 | 39.28045 | -8.57187 | 26214 ft | 447 kts | 50° |
| 2026-04-28 15:06 | 39.30079 | -8.54200 | 26642 ft | 451 kts | 50° |
| 2026-04-28 15:06 | 39.32150 | -8.51154 | 27073 ft | 454 kts | 50° |
| 2026-04-28 15:07 | 39.34238 | -8.48081 | 27486 ft | 457 kts | 50° |
| 2026-04-28 15:07 | 39.36340 | -8.44984 | 27890 ft | 460 kts | 50° |
| 2026-04-28 15:07 | 39.38448 | -8.41876 | 28275 ft | 463 kts | 50° |
| 2026-04-28 15:07 | 39.40593 | -8.38708 | 28677 ft | 466 kts | 50° |
| 2026-04-28 15:08 | 39.42008 | -8.36616 | 28958 ft | 468 kts | 50° |
| 2026-04-28 15:08 | 39.44901 | -8.32337 | 29486 ft | 472 kts | 50° |
| 2026-04-28 15:08 | 39.47066 | -8.29129 | 29860 ft | 475 kts | 50° |
| 2026-04-28 15:08 | 39.48531 | -8.26957 | 30109 ft | 476 kts | 50° |
| 2026-04-28 15:09 | 39.50716 | -8.23717 | 30511 ft | 478 kts | 50° |
| 2026-04-28 15:09 | 39.52884 | -8.20497 | 30881 ft | 480 kts | 50° |
| 2026-04-28 15:09 | 39.55076 | -8.17240 | 31256 ft | 482 kts | 51° |
| 2026-04-28 15:09 | 39.57286 | -8.13951 | 31628 ft | 484 kts | 51° |
| 2026-04-28 15:10 | 39.59495 | -8.10659 | 31986 ft | 486 kts | 51° |
| 2026-04-28 15:10 | 39.61724 | -8.07335 | 32323 ft | 488 kts | 51° |
| 2026-04-28 15:10 | 39.63953 | -8.04007 | 32604 ft | 490 kts | 51° |
| 2026-04-28 15:10 | 39.66242 | -8.00718 | 32834 ft | 493 kts | 46° |
| 2026-04-28 15:11 | 39.68720 | -7.97622 | 33080 ft | 494 kts | 45° |
| 2026-04-28 15:11 | 39.71196 | -7.94524 | 33304 ft | 496 kts | 45° |
| 2026-04-28 15:11 | 39.73670 | -7.91414 | 33541 ft | 496 kts | 46° |
| 2026-04-28 15:11 | 39.76144 | -7.88297 | 33792 ft | 495 kts | 46° |
| 2026-04-28 15:12 | 39.78616 | -7.85177 | 34046 ft | 494 kts | 46° |
| 2026-04-28 15:12 | 39.81076 | -7.82066 | 34263 ft | 494 kts | 46° |
| 2026-04-28 15:12 | 39.83544 | -7.78944 | 34478 ft | 494 kts | 46° |
| 2026-04-28 15:12 | 39.86009 | -7.75820 | 34702 ft | 494 kts | 46° |
| 2026-04-28 15:13 | 39.88467 | -7.72703 | 34891 ft | 494 kts | 46° |
| 2026-04-28 15:13 | 39.90924 | -7.69583 | 35120 ft | 494 kts | 46° |
| 2026-04-28 15:13 | 39.93387 | -7.66452 | 35310 ft | 494 kts | 46° |
| 2026-04-28 15:13 | 39.95844 | -7.63325 | 35523 ft | 494 kts | 46° |
| 2026-04-28 15:14 | 39.98269 | -7.60238 | 35737 ft | 494 kts | 46° |
| 2026-04-28 15:14 | 40.00727 | -7.57104 | 35922 ft | 494 kts | 46° |
| 2026-04-28 15:14 | 40.03184 | -7.53969 | 36154 ft | 494 kts | 46° |
| 2026-04-28 15:14 | 40.05636 | -7.50836 | 36346 ft | 493 kts | 46° |
| 2026-04-28 15:15 | 40.08082 | -7.47707 | 36550 ft | 493 kts | 46° |
| 2026-04-28 15:15 | 40.10536 | -7.44565 | 36752 ft | 493 kts | 46° |
| 2026-04-28 15:15 | 40.12985 | -7.41425 | 36955 ft | 493 kts | 46° |
| 2026-04-28 15:15 | 40.15426 | -7.38293 | 37160 ft | 493 kts | 46° |
| 2026-04-28 15:16 | 40.17873 | -7.35151 | 37341 ft | 493 kts | 45° |
| 2026-04-28 15:16 | 40.20311 | -7.32015 | 37558 ft | 493 kts | 45° |
| 2026-04-28 15:16 | 40.22758 | -7.28865 | 37762 ft | 492 kts | 45° |
| 2026-04-28 15:16 | 40.25194 | -7.25726 | 37982 ft | 492 kts | 45° |
| 2026-04-28 15:17 | 40.27633 | -7.22581 | 38162 ft | 491 kts | 45° |
| 2026-04-28 15:17 | 40.30032 | -7.19483 | 38384 ft | 491 kts | 45° |
| 2026-04-28 15:17 | 40.32458 | -7.16347 | 38552 ft | 491 kts | 45° |
| 2026-04-28 15:17 | 40.34881 | -7.13211 | 38735 ft | 490 kts | 45° |
| 2026-04-28 15:18 | 40.37302 | -7.10074 | 38884 ft | 489 kts | 45° |
| 2026-04-28 15:18 | 40.39729 | -7.06927 | 39047 ft | 489 kts | 45° |
| 2026-04-28 15:18 | 40.42143 | -7.03791 | 39193 ft | 489 kts | 45° |
| 2026-04-28 15:18 | 40.44556 | -7.00654 | 39357 ft | 488 kts | 45° |
| 2026-04-28 15:19 | 40.46967 | -6.97517 | 39489 ft | 488 kts | 45° |
| 2026-04-28 15:19 | 40.49340 | -6.94426 | 39627 ft | 488 kts | 45° |
| 2026-04-28 15:19 | 40.51751 | -6.91283 | 39761 ft | 488 kts | 45° |
| 2026-04-28 15:20 | 40.56573 | -6.84985 | 39853 ft | 488 kts | 45° |
| 2026-04-28 15:20 | 40.61381 | -6.78692 | 39857 ft | 487 kts | 45° |
| 2026-04-28 15:21 | 40.66187 | -6.72389 | 39856 ft | 488 kts | 46° |
| 2026-04-28 15:21 | 40.70961 | -6.66115 | 39858 ft | 488 kts | 46° |
| 2026-04-28 15:22 | 40.75769 | -6.59783 | 39858 ft | 489 kts | 46° |
| 2026-04-28 15:22 | 40.80574 | -6.53439 | 39855 ft | 489 kts | 46° |
| 2026-04-28 15:23 | 40.85382 | -6.47078 | 39860 ft | 489 kts | 46° |
| 2026-04-28 15:23 | 40.90188 | -6.40707 | 39856 ft | 490 kts | 46° |
| 2026-04-28 15:24 | 40.94965 | -6.34361 | 39862 ft | 490 kts | 46° |
| 2026-04-28 15:24 | 40.99773 | -6.27965 | 39864 ft | 490 kts | 46° |
| 2026-04-28 15:25 | 41.04815 | -6.21880 | 39871 ft | 491 kts | 42° |
| 2026-04-28 15:25 | 41.09908 | -6.15936 | 39874 ft | 491 kts | 42° |
| 2026-04-28 15:26 | 41.14996 | -6.09889 | 39866 ft | 491 kts | 43° |
| 2026-04-28 15:26 | 41.20069 | -6.03808 | 39872 ft | 492 kts | 43° |
| 2026-04-28 15:27 | 41.25147 | -5.97706 | 39869 ft | 493 kts | 43° |
| 2026-04-28 15:27 | 41.30228 | -5.91589 | 39871 ft | 493 kts | 43° |
| 2026-04-28 15:28 | 41.35303 | -5.85465 | 39870 ft | 493 kts | 43° |
| 2026-04-28 15:28 | 41.40351 | -5.79361 | 39872 ft | 493 kts | 43° |
| 2026-04-28 15:29 | 41.45427 | -5.73209 | 39871 ft | 493 kts | 43° |
| 2026-04-28 15:29 | 41.50634 | -5.67166 | 39869 ft | 493 kts | 37° |
| 2026-04-28 15:30 | 41.56377 | -5.62313 | 39867 ft | 492 kts | 27° |
| 2026-04-28 15:30 | 41.62620 | -5.58602 | 39867 ft | 491 kts | 22° |
| 2026-04-28 15:31 | 41.68910 | -5.55040 | 39870 ft | 491 kts | 22° |
| 2026-04-28 15:31 | 41.75197 | -5.51469 | 39875 ft | 490 kts | 22° |
| 2026-04-28 15:32 | 41.81475 | -5.47908 | 39875 ft | 490 kts | 22° |
| 2026-04-28 15:32 | 41.87714 | -5.44365 | 39875 ft | 490 kts | 22° |
| 2026-04-28 15:33 | 41.93971 | -5.40804 | 39877 ft | 489 kts | 22° |
| 2026-04-28 15:33 | 42.00253 | -5.37221 | 39883 ft | 489 kts | 22° |
| 2026-04-28 15:34 | 42.06516 | -5.33641 | 39887 ft | 489 kts | 22° |
| 2026-04-28 15:34 | 42.12781 | -5.30053 | 39888 ft | 489 kts | 22° |
| 2026-04-28 15:35 | 42.18996 | -5.26485 | 39894 ft | 489 kts | 22° |
| 2026-04-28 15:35 | 42.28383 | -5.21082 | 39903 ft | 489 kts | 22° |
| 2026-04-28 15:36 | 42.34632 | -5.17475 | 39898 ft | 489 kts | 22° |
| 2026-04-28 15:36 | 42.40881 | -5.13860 | 39907 ft | 488 kts | 22° |
| 2026-04-28 15:37 | 42.47087 | -5.10263 | 39911 ft | 488 kts | 22° |
| 2026-04-28 15:37 | 42.53327 | -5.06639 | 39914 ft | 488 kts | 22° |
| 2026-04-28 15:38 | 42.59568 | -5.03005 | 39921 ft | 488 kts | 22° |
| 2026-04-28 15:38 | 42.65816 | -4.99361 | 39930 ft | 489 kts | 22° |
| 2026-04-28 15:39 | 42.72028 | -4.95727 | 39935 ft | 490 kts | 22° |
| 2026-04-28 15:39 | 42.78329 | -4.92032 | 39940 ft | 491 kts | 22° |
| 2026-04-28 15:40 | 42.84572 | -4.88364 | 39943 ft | 492 kts | 22° |
| 2026-04-28 15:40 | 42.90869 | -4.84657 | 39952 ft | 494 kts | 22° |
| 2026-04-28 15:41 | 42.97178 | -4.80934 | 39968 ft | 495 kts | 21° |
| 2026-04-28 15:41 | 43.03500 | -4.77194 | 39981 ft | 495 kts | 21° |
| 2026-04-28 15:42 | 43.09817 | -4.73448 | 39991 ft | 494 kts | 21° |
| 2026-04-28 15:42 | 43.16084 | -4.69727 | 39989 ft | 494 kts | 21° |
| 2026-04-28 15:43 | 43.22383 | -4.65975 | 39999 ft | 494 kts | 21° |
| 2026-04-28 15:43 | 43.28681 | -4.62218 | 40001 ft | 493 kts | 21° |
| 2026-04-28 15:44 | 43.34929 | -4.58480 | 40001 ft | 492 kts | 21° |
| 2026-04-28 15:44 | 43.41194 | -4.54723 | 39995 ft | 492 kts | 21° |
| 2026-04-28 15:45 | 43.47469 | -4.50953 | 39989 ft | 491 kts | 21° |
| 2026-04-28 15:45 | 43.53722 | -4.47187 | 39985 ft | 491 kts | 21° |
| 2026-04-28 15:46 | 43.59974 | -4.43414 | 39980 ft | 490 kts | 21° |
| 2026-04-28 15:46 | 43.66181 | -4.39658 | 39978 ft | 490 kts | 21° |
| 2026-04-28 15:47 | 43.72425 | -4.35872 | 39976 ft | 490 kts | 21° |
| 2026-04-28 15:47 | 43.78669 | -4.32077 | 39975 ft | 490 kts | 21° |
| 2026-04-28 15:48 | 43.84901 | -4.28281 | 39972 ft | 490 kts | 21° |
| 2026-04-28 15:48 | 43.91089 | -4.24503 | 39976 ft | 489 kts | 21° |
| 2026-04-28 15:49 | 43.97319 | -4.20690 | 39977 ft | 488 kts | 21° |
| 2026-04-28 15:49 | 44.03525 | -4.16884 | 39979 ft | 487 kts | 21° |
| 2026-04-28 15:50 | 44.09724 | -4.13073 | 39979 ft | 487 kts | 21° |
| 2026-04-28 15:50 | 44.15870 | -4.09286 | 39978 ft | 486 kts | 21° |
| 2026-04-28 15:51 | 44.22041 | -4.05475 | 39984 ft | 485 kts | 21° |
| 2026-04-28 15:51 | 44.28205 | -4.01659 | 39969 ft | 484 kts | 21° |
| 2026-04-28 15:52 | 44.34204 | -3.97361 | 39981 ft | 487 kts | 29° |
| 2026-04-28 15:52 | 44.39759 | -3.92023 | 39979 ft | 488 kts | 32° |
| 2026-04-28 15:53 | 44.45333 | -3.86618 | 39981 ft | 488 kts | 32° |
| 2026-04-28 15:53 | 44.50908 | -3.81191 | 39977 ft | 488 kts | 32° |
| 2026-04-28 15:54 | 44.56479 | -3.75737 | 39984 ft | 488 kts | 32° |
| 2026-04-28 15:54 | 44.62046 | -3.70269 | 39992 ft | 489 kts | 32° |
| 2026-04-28 15:55 | 44.67575 | -3.64826 | 39990 ft | 489 kts | 32° |
| 2026-04-28 15:55 | 44.73143 | -3.59332 | 39992 ft | 489 kts | 32° |
| 2026-04-28 15:56 | 44.78711 | -3.53824 | 39993 ft | 489 kts | 32° |
| 2026-04-28 15:56 | 44.84241 | -3.48341 | 39994 ft | 489 kts | 33° |
| 2026-04-28 15:57 | 44.89805 | -3.42811 | 39996 ft | 489 kts | 33° |
| 2026-04-28 15:57 | 44.95370 | -3.37268 | 39512 ft | 489 kts | 34° |
| 2026-04-28 15:58 | 44.98121 | -3.34545 | 39808 ft | 478 kts | 35° |
| 2026-04-28 15:58 | 45.00828 | -3.31841 | 39997 ft | 477 kts | 35° |
| 2026-04-28 15:58 | 45.06260 | -3.26395 | 39999 ft | 479 kts | 35° |
| 2026-04-28 15:59 | 45.11659 | -3.20973 | 40004 ft | 479 kts | 35° |
| 2026-04-28 15:59 | 45.17091 | -3.15509 | 40003 ft | 479 kts | 35° |
| 2026-04-28 16:00 | 45.22522 | -3.10033 | 40002 ft | 479 kts | 35° |
| 2026-04-28 16:00 | 45.27953 | -3.04544 | 39999 ft | 479 kts | 35° |
| 2026-04-28 16:01 | 45.33378 | -2.99049 | 39999 ft | 479 kts | 35° |
| 2026-04-28 16:01 | 45.38758 | -2.93586 | 39999 ft | 479 kts | 35° |
| 2026-04-28 16:02 | 45.44179 | -2.88067 | 40002 ft | 479 kts | 36° |
| 2026-04-28 16:02 | 45.49601 | -2.82535 | 40001 ft | 479 kts | 36° |
| 2026-04-28 16:03 | 45.55008 | -2.77004 | 39999 ft | 479 kts | 36° |
| 2026-04-28 16:03 | 45.60420 | -2.71455 | 39999 ft | 479 kts | 36° |
| 2026-04-28 16:04 | 45.65796 | -2.65930 | 40003 ft | 479 kts | 36° |
| 2026-04-28 16:04 | 45.71201 | -2.60361 | 40000 ft | 479 kts | 36° |
| 2026-04-28 16:05 | 45.76605 | -2.54779 | 39999 ft | 479 kts | 36° |
| 2026-04-28 16:05 | 45.82004 | -2.49187 | 39999 ft | 479 kts | 36° |
| 2026-04-28 16:06 | 45.87401 | -2.43585 | 39999 ft | 479 kts | 36° |
| 2026-04-28 16:06 | 45.92763 | -2.38005 | 39999 ft | 479 kts | 36° |
| 2026-04-28 16:07 | 45.98155 | -2.32381 | 39999 ft | 479 kts | 36° |
| 2026-04-28 16:08 | 46.06337 | -2.24142 | 39997 ft | 479 kts | 30° |
| 2026-04-28 16:08 | 46.12207 | -2.19605 | 39997 ft | 479 kts | 28° |
| 2026-04-28 16:09 | 46.21007 | -2.12766 | 40000 ft | 479 kts | 28° |
| 2026-04-28 16:10 | 46.29799 | -2.05916 | 39999 ft | 479 kts | 28° |
| 2026-04-28 16:10 | 46.38558 | -1.99071 | 39999 ft | 479 kts | 28° |
| 2026-04-28 16:11 | 46.50278 | -1.89871 | 40000 ft | 479 kts | 28° |
| 2026-04-28 16:12 | 46.59027 | -1.82974 | 39999 ft | 479 kts | 28° |
| 2026-04-28 16:13 | 46.67808 | -1.76026 | 40001 ft | 479 kts | 28° |
| 2026-04-28 16:14 | 46.79504 | -1.66729 | 40002 ft | 479 kts | 28° |
| 2026-04-28 16:15 | 46.91205 | -1.57382 | 40001 ft | 479 kts | 28° |
| 2026-04-28 16:15 | 46.97011 | -1.52727 | 40000 ft | 479 kts | 28° |
| 2026-04-28 16:16 | 47.05766 | -1.45686 | 40002 ft | 479 kts | 28° |
| 2026-04-28 16:17 | 47.14532 | -1.38609 | 40000 ft | 479 kts | 28° |
| 2026-04-28 16:17 | 47.20329 | -1.33915 | 40001 ft | 479 kts | 28° |
| 2026-04-28 16:18 | 47.26162 | -1.29179 | 39999 ft | 479 kts | 29° |
| 2026-04-28 16:18 | 47.31997 | -1.24429 | 40000 ft | 479 kts | 29° |
| 2026-04-28 16:19 | 47.37829 | -1.19670 | 40001 ft | 479 kts | 29° |
| 2026-04-28 16:19 | 47.43656 | -1.14903 | 39999 ft | 479 kts | 29° |
| 2026-04-28 16:20 | 47.49486 | -1.10121 | 40001 ft | 479 kts | 29° |
| 2026-04-28 16:20 | 47.55312 | -1.05331 | 40003 ft | 479 kts | 29° |
| 2026-04-28 16:21 | 47.61095 | -1.00563 | 40000 ft | 479 kts | 29° |
| 2026-04-28 16:21 | 47.66915 | -0.95747 | 40001 ft | 479 kts | 30° |
| 2026-04-28 16:22 | 47.72339 | -0.90031 | 39998 ft | 479 kts | 40° |
| 2026-04-28 16:22 | 47.77008 | -0.82999 | 39998 ft | 479 kts | 51° |
| 2026-04-28 16:23 | 47.81062 | -0.75155 | 39999 ft | 479 kts | 52° |
| 2026-04-28 16:23 | 47.85102 | -0.67358 | 39997 ft | 479 kts | 52° |
| 2026-04-28 16:24 | 47.89155 | -0.59478 | 40002 ft | 479 kts | 53° |
| 2026-04-28 16:24 | 47.93190 | -0.51588 | 39997 ft | 479 kts | 53° |
| 2026-04-28 16:25 | 47.97225 | -0.43670 | 39999 ft | 479 kts | 53° |
| 2026-04-28 16:25 | 48.01225 | -0.35800 | 40000 ft | 479 kts | 53° |
| 2026-04-28 16:26 | 48.05206 | -0.27822 | 40000 ft | 479 kts | 56° |
| 2026-04-28 16:26 | 48.08518 | -0.19206 | 40000 ft | 479 kts | 65° |
| 2026-04-28 16:27 | 48.11335 | -0.10168 | 40000 ft | 479 kts | 65° |
| 2026-04-28 16:28 | 48.15593 | 0.03350 | 39999 ft | 479 kts | 65° |
| 2026-04-28 16:28 | 48.18413 | 0.12391 | 40001 ft | 479 kts | 65° |
| 2026-04-28 16:29 | 48.22603 | 0.25900 | 39999 ft | 479 kts | 65° |
| 2026-04-28 16:30 | 48.26803 | 0.39509 | 39999 ft | 479 kts | 65° |
| 2026-04-28 16:30 | 48.29590 | 0.48583 | 40002 ft | 479 kts | 65° |
| 2026-04-28 16:31 | 48.32373 | 0.57672 | 40001 ft | 479 kts | 65° |
| 2026-04-28 16:31 | 48.35149 | 0.66776 | 40000 ft | 479 kts | 65° |
| 2026-04-28 16:32 | 48.37932 | 0.75936 | 40002 ft | 479 kts | 65° |
| 2026-04-28 16:32 | 48.42074 | 0.89633 | 40002 ft | 479 kts | 65° |
| 2026-04-28 16:33 | 48.43913 | 0.95738 | 40001 ft | 479 kts | 66° |
| 2026-04-28 16:33 | 48.47546 | 1.07845 | 40001 ft | 479 kts | 66° |
| 2026-04-28 16:34 | 48.50282 | 1.17002 | 40001 ft | 479 kts | 66° |
| 2026-04-28 16:34 | 48.52876 | 1.25713 | 40000 ft | 479 kts | 66° |
| 2026-04-28 16:35 | 48.54552 | 1.31361 | 40003 ft | 479 kts | 66° |
| 2026-04-28 16:35 | 48.55911 | 1.35950 | 40000 ft | 479 kts | 66° |
| 2026-04-28 16:36 | 48.57404 | 1.41001 | 40001 ft | 479 kts | 66° |
| 2026-04-28 16:36 | 48.60111 | 1.50186 | 40001 ft | 479 kts | 66° |
| 2026-04-28 16:37 | 48.62794 | 1.59323 | 40001 ft | 479 kts | 66° |
| 2026-04-28 16:38 | 48.66460 | 1.73358 | 40000 ft | 479 kts | 70° |
| 2026-04-28 16:38 | 48.68765 | 1.82802 | 40000 ft | 479 kts | 70° |
| 2026-04-28 16:39 | 48.71077 | 1.92329 | 39999 ft | 479 kts | 70° |
| 2026-04-28 16:39 | 48.73342 | 2.01737 | 40002 ft | 479 kts | 70° |
| 2026-04-28 16:40 | 48.75560 | 2.11250 | 40000 ft | 478 kts | 73° |
| 2026-04-28 16:40 | 48.77308 | 2.20966 | 39999 ft | 478 kts | 75° |
| 2026-04-28 16:41 | 48.79060 | 2.30661 | 40002 ft | 478 kts | 75° |
| 2026-04-28 16:41 | 48.80810 | 2.40404 | 39999 ft | 479 kts | 75° |
| 2026-04-28 16:42 | 48.82548 | 2.50159 | 39999 ft | 479 kts | 75° |
| 2026-04-28 16:42 | 48.83984 | 2.58264 | 40000 ft | 479 kts | 75° |
| 2026-04-28 16:43 | 48.85713 | 2.68070 | 39999 ft | 479 kts | 75° |
| 2026-04-28 16:43 | 48.87423 | 2.77827 | 40000 ft | 479 kts | 75° |
| 2026-04-28 16:44 | 48.89118 | 2.87545 | 40000 ft | 479 kts | 75° |
| 2026-04-28 16:44 | 48.90816 | 2.97331 | 40000 ft | 479 kts | 75° |
| 2026-04-28 16:45 | 48.92505 | 3.07120 | 40003 ft | 479 kts | 75° |
| 2026-04-28 16:45 | 48.94185 | 3.16919 | 40001 ft | 479 kts | 76° |
| 2026-04-28 16:46 | 48.95846 | 3.26655 | 40003 ft | 479 kts | 76° |
| 2026-04-28 16:46 | 48.97508 | 3.36461 | 40000 ft | 479 kts | 76° |
| 2026-04-28 16:47 | 48.99163 | 3.46273 | 40000 ft | 479 kts | 76° |
| 2026-04-28 16:47 | 49.00810 | 3.56095 | 40001 ft | 479 kts | 76° |
| 2026-04-28 16:48 | 49.02439 | 3.65864 | 40003 ft | 479 kts | 76° |
| 2026-04-28 16:48 | 49.04068 | 3.75691 | 40001 ft | 479 kts | 76° |
| 2026-04-28 16:49 | 49.05689 | 3.85525 | 39999 ft | 479 kts | 76° |
| 2026-04-28 16:49 | 49.07303 | 3.95378 | 40003 ft | 479 kts | 76° |
| 2026-04-28 16:50 | 49.08908 | 4.05230 | 40000 ft | 479 kts | 76° |
| 2026-04-28 16:50 | 49.10504 | 4.15090 | 39999 ft | 479 kts | 76° |
| 2026-04-28 16:51 | 49.12084 | 4.24901 | 40002 ft | 479 kts | 76° |
| 2026-04-28 16:51 | 49.13711 | 4.34801 | 40000 ft | 478 kts | 73° |
| 2026-04-28 16:52 | 49.16079 | 4.44242 | 39999 ft | 478 kts | 67° |
| 2026-04-28 16:52 | 49.18643 | 4.53628 | 39999 ft | 479 kts | 68° |
| 2026-04-28 16:53 | 49.21177 | 4.63012 | 39999 ft | 479 kts | 68° |
| 2026-04-28 16:53 | 49.23710 | 4.72430 | 40000 ft | 479 kts | 68° |
| 2026-04-28 16:54 | 49.26237 | 4.81858 | 40000 ft | 479 kts | 68° |
| 2026-04-28 16:54 | 49.28741 | 4.91235 | 40001 ft | 479 kts | 68° |
| 2026-04-28 16:55 | 49.31253 | 5.00681 | 40003 ft | 479 kts | 68° |
| 2026-04-28 16:55 | 49.33754 | 5.10126 | 40002 ft | 479 kts | 68° |
| 2026-04-28 16:56 | 49.36250 | 5.19594 | 39999 ft | 479 kts | 68° |
| 2026-04-28 16:56 | 49.38730 | 5.29035 | 40000 ft | 479 kts | 68° |
| 2026-04-28 16:57 | 49.41205 | 5.38496 | 39999 ft | 479 kts | 68° |
| 2026-04-28 16:57 | 49.43689 | 5.48032 | 40001 ft | 479 kts | 68° |
| 2026-04-28 16:58 | 49.46140 | 5.57481 | 40001 ft | 479 kts | 68° |
| 2026-04-28 16:58 | 49.48601 | 5.67010 | 40001 ft | 479 kts | 68° |
| 2026-04-28 16:59 | 49.51036 | 5.76472 | 40000 ft | 479 kts | 68° |
| 2026-04-28 16:59 | 49.53410 | 5.86046 | 40000 ft | 479 kts | 70° |
| 2026-04-28 17:00 | 49.55746 | 5.95638 | 40000 ft | 479 kts | 69° |
| 2026-04-28 17:00 | 49.58111 | 6.05221 | 40002 ft | 479 kts | 69° |
| 2026-04-28 17:01 | 49.60472 | 6.14821 | 40003 ft | 479 kts | 69° |
| 2026-04-28 17:01 | 49.62817 | 6.24410 | 39999 ft | 479 kts | 69° |
| 2026-04-28 17:02 | 49.64808 | 6.34208 | 39999 ft | 478 kts | 75° |
| 2026-04-28 17:02 | 49.66542 | 6.44041 | 39997 ft | 478 kts | 75° |
| 2026-04-28 17:03 | 49.69176 | 6.58884 | 39999 ft | 479 kts | 75° |
| 2026-04-28 17:03 | 49.70923 | 6.68837 | 39999 ft | 479 kts | 75° |
| 2026-04-28 17:04 | 49.73516 | 6.83734 | 40003 ft | 479 kts | 75° |
| 2026-04-28 17:05 | 49.76092 | 6.98654 | 40000 ft | 479 kts | 75° |
| 2026-04-28 17:06 | 49.78648 | 7.13584 | 40001 ft | 479 kts | 75° |
| 2026-04-28 17:06 | 49.81173 | 7.28462 | 40000 ft | 479 kts | 75° |
| 2026-04-28 17:07 | 49.82855 | 7.38443 | 40000 ft | 479 kts | 76° |
| 2026-04-28 17:07 | 49.84526 | 7.48415 | 40000 ft | 479 kts | 76° |
| 2026-04-28 17:08 | 49.86190 | 7.58404 | 40001 ft | 479 kts | 76° |
| 2026-04-28 17:08 | 49.87844 | 7.68391 | 40002 ft | 479 kts | 76° |
| 2026-04-28 17:09 | 49.89491 | 7.78397 | 40002 ft | 479 kts | 76° |
| 2026-04-28 17:09 | 49.91129 | 7.88406 | 40001 ft | 479 kts | 76° |
| 2026-04-28 17:10 | 49.92747 | 7.98352 | 40000 ft | 479 kts | 76° |
| 2026-04-28 17:10 | 49.94333 | 8.08162 | 39999 ft | 479 kts | 76° |
| 2026-04-28 17:11 | 49.95946 | 8.18192 | 39999 ft | 479 kts | 76° |
| 2026-04-28 17:11 | 49.97548 | 8.28219 | 40000 ft | 479 kts | 76° |
| 2026-04-28 17:12 | 49.99143 | 8.38259 | 39999 ft | 479 kts | 76° |
| 2026-04-28 17:12 | 50.00718 | 8.48238 | 40001 ft | 479 kts | 76° |
| 2026-04-28 17:13 | 50.02296 | 8.58292 | 39999 ft | 478 kts | 76° |
| 2026-04-28 17:13 | 50.03864 | 8.68349 | 39999 ft | 478 kts | 76° |
| 2026-04-28 17:14 | 50.05335 | 8.78433 | 40002 ft | 478 kts | 81° |
| 2026-04-28 17:14 | 50.05828 | 8.88733 | 39998 ft | 478 kts | 89° |
| 2026-04-28 17:15 | 50.05988 | 8.99081 | 39997 ft | 478 kts | 89° |
| 2026-04-28 17:15 | 50.06164 | 9.09424 | 39999 ft | 478 kts | 89° |
| 2026-04-28 17:16 | 50.06318 | 9.19691 | 40000 ft | 478 kts | 89° |
| 2026-04-28 17:16 | 50.06461 | 9.30047 | 40001 ft | 478 kts | 89° |
| 2026-04-28 17:17 | 50.06595 | 9.40397 | 40001 ft | 478 kts | 89° |
| 2026-04-28 17:17 | 50.06497 | 9.50728 | 40000 ft | 478 kts | 95° |
| 2026-04-28 17:18 | 50.05658 | 9.60912 | 39999 ft | 478 kts | 98° |
| 2026-04-28 17:18 | 50.04784 | 9.71163 | 40002 ft | 478 kts | 98° |
| 2026-04-28 17:19 | 50.03907 | 9.81419 | 40002 ft | 478 kts | 98° |
| 2026-04-28 17:19 | 50.03019 | 9.91654 | 40000 ft | 478 kts | 98° |
| 2026-04-28 17:20 | 50.02272 | 10.00173 | 40000 ft | 478 kts | 98° |
| 2026-04-28 17:20 | 50.01218 | 10.12059 | 40000 ft | 478 kts | 98° |
| 2026-04-28 17:21 | 50.00302 | 10.22288 | 40000 ft | 478 kts | 98° |
| 2026-04-28 17:22 | 49.98910 | 10.37622 | 40002 ft | 478 kts | 98° |
| 2026-04-28 17:22 | 49.97976 | 10.47792 | 40002 ft | 478 kts | 98° |
| 2026-04-28 17:23 | 49.96670 | 10.63128 | 39999 ft | 478 kts | 94° |
| 2026-04-28 17:23 | 49.96661 | 10.73441 | 39999 ft | 478 kts | 89° |
| 2026-04-28 17:24 | 49.96758 | 10.83774 | 39999 ft | 478 kts | 89° |
| 2026-04-28 17:24 | 49.96829 | 10.94103 | 40000 ft | 478 kts | 90° |
| 2026-04-28 17:25 | 49.96916 | 11.09520 | 39844 ft | 479 kts | 90° |
| 2026-04-28 17:25 | 49.96940 | 11.14687 | 39596 ft | 478 kts | 90° |
| 2026-04-28 17:26 | 49.96963 | 11.19831 | 39348 ft | 477 kts | 90° |
| 2026-04-28 17:26 | 49.96914 | 11.24980 | 39083 ft | 476 kts | 93° |
| 2026-04-28 17:26 | 49.96739 | 11.30119 | 38831 ft | 477 kts | 93° |
| 2026-04-28 17:26 | 49.96575 | 11.35261 | 38583 ft | 477 kts | 93° |
| 2026-04-28 17:27 | 49.96415 | 11.40401 | 38335 ft | 477 kts | 93° |
| 2026-04-28 17:27 | 49.96253 | 11.45553 | 38090 ft | 477 kts | 93° |
| 2026-04-28 17:27 | 49.96088 | 11.50691 | 37836 ft | 477 kts | 93° |
| 2026-04-28 17:27 | 49.95922 | 11.55760 | 37591 ft | 477 kts | 93° |
| 2026-04-28 17:28 | 49.95749 | 11.60974 | 37339 ft | 477 kts | 93° |
| 2026-04-28 17:28 | 49.95400 | 11.71180 | 36849 ft | 477 kts | 93° |
| 2026-04-28 17:28 | 49.95220 | 11.76319 | 36596 ft | 477 kts | 93° |
| 2026-04-28 17:29 | 49.95038 | 11.81462 | 36346 ft | 477 kts | 93° |
| 2026-04-28 17:29 | 49.94854 | 11.86599 | 36095 ft | 477 kts | 93° |
| 2026-04-28 17:29 | 49.94667 | 11.91736 | 35544 ft | 477 kts | 93° |
| 2026-04-28 17:30 | 49.94380 | 12.02093 | 33274 ft | 486 kts | 92° |